Latest Coastal Weather Observations for Kingscote

IDS60701

Issued at 1:45 am CST Sunday 31 August 2014 (issued every 10 minutes, with the page automatically refreshed every 10 minutes)

About coastal observations | Map of coastal stations | Coastal observations for SA | Marine services | Other Formats
Station Details ID: 022841 Name: KINGSCOTE AERO Lat: -35.71 Lon: 137.52 Height: 6.23 m
Data from the previous 72 hours. | See also: Recent months at Kingscote
Date/Time
CST
Temp

°C
Wind Pressure Rain
since 9am
mm
Weather Cloud Vis
km
Sea
Height
m
Swell
Dir
 
Speed
knots
Gust
knots
hPa Trend Height
m
Period
s
Dir
31/01:30am 13.1 N 4 5 1014.8 - 0.0 - - 10 - - - -
31/01:00am 13.6 N 5 7 1015.3 - 0.0 - - 10 - - - -
31/12:30am 13.6 NW 3 5 1015.5 - 0.0 - - 10 - - - -
31/12:00am 14.2 NNW 4 6 1015.4 - 0.0 - Mostly clear 10 - - - -
 
Date/Time
CST
Temp

°C
Wind Pressure Rain
since 9am
mm
Weather Cloud Vis
km
Sea
Height
m
Swell
Dir
 
Speed
knots
Gust
knots
hPa Trend Height
m
Period
s
Dir
30/11:30pm 15.7 N 9 12 1015.7 - 0.0 - - 10 - - - -
30/11:00pm 15.9 N 9 12 1016.0 - 0.0 - - 10 - - - -
30/10:30pm 16.8 N 8 14 1016.2 - 0.0 - - 10 - - - -
30/10:00pm 17.5 N 12 17 1016.3 - 0.0 - - 10 - - - -
30/09:30pm 17.8 N 13 19 1016.5 - 0.0 - - 10 - - - -
30/09:00pm 18.2 N 13 19 1016.8 - 0.0 - Cloudy 10 - - - -
30/08:30pm 15.9 N 5 10 1017.2 - 0.0 - - 10 - - - -
30/08:00pm 10.8 CALM 0 0 1017.4 - 0.0 - - 10 - - - -
30/07:30pm 13.7 N 4 6 1017.5 - 0.0 - - 10 - - - -
30/07:00pm 12.6 N 4 6 1017.4 - 0.0 - - 10 - - - -
30/06:30pm 13.0 NNE 3 5 1017.6 - 0.0 - - 10 - - - -
30/06:00pm 14.1 NE 6 7 1017.8 - 0.0 - - 10 - - - -
30/05:30pm 16.2 NNE 6 8 1017.8 - 0.0 - - 10 - - - -
30/05:00pm 17.9 N 8 11 1017.7 - 0.0 - - 10 - - - -
30/04:30pm 18.2 N 7 9 1018.0 - 0.0 - - 10 - - - -
30/04:00pm 18.9 N 7 11 1018.1 - 0.0 - - 10 - - - -
30/03:30pm 19.6 N 9 14 1018.3 - 0.0 - - 10 - - - -
30/03:00pm 20.9 N 9 14 1018.6 - 0.0 - - 10 - - - -
30/02:30pm 20.8 N 11 16 1018.9 - 0.0 - - 10 - - - -
30/02:00pm 21.1 N 11 19 1019.2 - 0.0 - - 10 - - - -
30/01:30pm 21.0 N 13 19 1019.6 - 0.0 - - 10 - - - -
30/01:00pm 20.4 N 12 18 1020.0 - 0.0 - - 10 - - - -
30/12:30pm 20.2 N 11 15 1020.5 - 0.0 - - 10 - - - -
30/12:00pm 19.7 N 9 15 1021.3 - 0.0 - - 10 - - - -
30/11:30am 19.4 N 10 13 1021.6 - 0.0 - - 10 - - - -
30/11:00am 19.0 N 8 10 1021.9 - 0.0 - - 10 - - - -
30/10:30am 17.9 N 9 12 1022.3 - 0.0 - - 10 - - - -
30/10:00am 17.0 N 8 10 1022.5 - 0.0 - - 10 - - - -
30/09:30am 16.3 N 7 9 1022.8 - 0.0 - - 10 - - - -
30/09:00am 15.5 N 7 10 1022.8 - 0.0 - - 10 - - - -
30/08:30am 13.4 CALM 0 0 1022.8 - 0.0 - - 10 - - - -
30/08:00am 10.0 CALM 0 0 1022.6 - 0.0 - - 10 - - - -
30/07:30am 7.4 CALM 0 0 1022.6 - 0.0 - - 10 - - - -
30/07:00am 4.1 CALM 0 0 1022.3 - 0.0 - - 10 - - - -
30/06:30am 3.1 S 4 5 1022.3 - 0.0 - - 10 - - - -
30/06:00am 4.0 CALM 0 0 1022.0 - 0.0 - - 10 - - - -
30/05:30am 3.8 CALM 0 0 1022.2 - 0.0 - - 10 - - - -
30/05:00am 3.8 CALM 0 0 1022.4 - 0.0 - - 10 - - - -
30/04:30am 3.9 CALM 0 0 1022.5 - 0.0 - - 10 - - - -
30/04:00am 3.6 CALM 0 0 1022.6 - 0.0 - - 10 - - - -
30/03:30am 4.8 CALM 0 0 1022.7 - 0.0 - - 10 - - - -
30/03:00am 4.8 CALM 0 0 1022.9 - 0.0 - - 10 - - - -
30/02:30am 5.1 CALM 0 0 1023.2 - 0.0 - - 10 - - - -
30/02:00am 5.0 CALM 0 0 1023.3 - 0.0 - - 10 - - - -
30/01:30am 5.0 CALM 0 0 1023.4 - 0.0 - - 10 - - - -
30/01:00am 5.6 CALM 0 0 1023.5 - 0.0 - - 10 - - - -
30/12:30am 5.6 CALM 0 0 1023.8 - 0.0 - - 10 - - - -
30/12:00am 6.2 CALM 0 0 1023.9 - 0.0 - - 10 - - - -
 
Date/Time
CST
Temp

°C
Wind Pressure Rain
since 9am
mm
Weather Cloud Vis
km
Sea
Height
m
Swell
Dir
 
Speed
knots
Gust
knots
hPa Trend Height
m
Period
s
Dir
29/11:30pm 6.4 CALM 0 0 1024.1 - 0.0 - - 10 - - - -
29/11:21pm 6.2 CALM 0 0 1024.2 - 0.0 - - 10 - - - -
29/11:00pm 6.6 CALM 0 0 1024.3 - 0.0 - - 3 - - - -
29/10:56pm 6.5 CALM 0 0 1024.3 - 0.0 - - 5 - - - -
29/10:52pm 6.5 CALM 0 0 1024.4 - 0.0 - - 10 - - - -
29/10:32pm 6.9 CALM 0 0 1024.6 - 0.0 - - 5 - - - -
29/10:30pm 7.0 CALM 0 0 1024.6 - 0.0 - - 10 - - - -
29/10:18pm 6.4 CALM 0 0 1024.7 - 0.0 - - 10 - - - -
29/10:00pm 7.5 CALM 0 0 1024.7 - 0.0 - - 2 - - - -
29/09:47pm 7.5 CALM 0 0 1024.8 - 0.0 - - 3 - - - -
29/09:30pm 8.2 CALM 0 0 1025.0 - 0.0 - - 10 - - - -
29/09:00pm 8.2 CALM 0 0 1025.2 - 0.0 - - 10 - - - -
29/08:30pm 9.2 CALM 0 0 1025.2 - 0.0 - - 10 - - - -
29/08:00pm 9.1 CALM 0 0 1025.2 - 0.0 - - 10 - - - -
29/07:30pm 10.0 CALM 0 0 1025.1 - 0.0 - - 10 - - - -
29/07:00pm 11.1 CALM 0 0 1025.0 - 0.0 - - 10 - - - -
29/06:30pm 12.9 NE 3 4 1024.9 - 0.0 - - 10 - - - -
29/06:00pm 13.7 ENE 4 6 1024.8 - 0.0 - - 10 - - - -
29/05:30pm 15.7 ENE 7 8 1024.9 - 0.0 - - 10 - - - -
29/05:00pm 17.7 NE 7 8 1025.0 - 0.0 - - 10 - - - -
29/04:30pm 18.3 E 6 8 1024.8 - 0.0 - - 10 - - - -
29/04:00pm 19.6 NE 5 7 1025.0 - 0.0 - - 10 - - - -
29/03:30pm 20.0 ENE 7 9 1025.1 - 0.0 - - 10 - - - -
29/03:00pm 20.0 E 7 9 1025.2 - 0.0 - - 10 - - - -
29/02:30pm 20.7 N 7 9 1025.4 - 0.0 - - 10 - - - -
29/02:00pm 20.4 N 7 9 1025.6 - 0.0 - - 10 - - - -
29/01:30pm 21.0 NNE 7 9 1026.0 - 0.0 - - 10 - - - -
29/01:00pm 21.0 NNE 7 11 1026.3 - 0.0 - - 10 - - - -
29/12:30pm 20.8 NNE 6 8 1026.8 - 0.0 - - 10 - - - -
29/12:00pm 20.6 N 7 9 1027.3 - 0.0 - - 10 - - - -
29/11:30am 20.1 N 8 11 1027.7 - 0.0 - - 10 - - - -
29/11:00am 19.2 N 9 12 1027.9 - 0.0 - - 10 - - - -
29/10:30am 18.8 N 7 9 1028.0 - 0.0 - - 10 - - - -
29/10:00am 17.7 N 6 8 1028.2 - 0.0 - - 10 - - - -
29/09:30am 16.1 CALM 0 0 1028.4 - 0.0 - - 10 - - - -
29/09:00am 12.6 CALM 0 0 1028.7 - 0.2 - - 10 - - - -
29/08:30am 9.7 CALM 0 0 1028.4 - 0.2 - - 10 - - - -
29/08:00am 7.3 CALM 0 0 1028.4 - 0.2 - - 10 - - - -
29/07:30am 4.8 CALM 0 0 1028.1 - 0.2 - - 10 - - - -
29/07:00am 3.3 CALM 0 0 1028.0 - 0.2 - - 10 - - - -
29/06:30am 3.4 CALM 0 0 1027.8 - 0.2 - - 10 - - - -
29/06:00am 4.0 CALM 0 0 1027.5 - 0.0 - - 10 - - - -
29/05:30am 4.2 CALM 0 0 1027.2 - 0.0 - - 10 - - - -
29/05:00am 4.5 CALM 0 0 1027.1 - 0.0 - - 10 - - - -
29/04:30am 3.7 CALM 0 0 1027.1 - 0.0 - - 10 - - - -
29/04:00am 5.0 CALM 0 0 1026.9 - 0.0 - - 10 - - - -
29/03:30am 5.3 CALM 0 0 1026.8 - 0.0 - - 10 - - - -
29/03:00am 4.6 CALM 0 0 1027.0 - 0.0 - - 10 - - - -
29/02:30am 4.6 CALM 0 0 1027.0 - 0.0 - - 10 - - - -
29/02:00am 5.5 CALM 0 0 1027.3 - 0.0 - - 10 - - - -
29/01:30am 5.2 CALM 0 0 1027.5 - 0.0 - - 10 - - - -
29/01:00am 5.3 CALM 0 0 1027.7 - 0.0 - - 10 - - - -
29/12:30am 5.9 CALM 0 0 1027.8 - 0.0 - - 10 - - - -
29/12:00am 5.7 CALM 0 0 1027.7 - 0.0 - - 10 - - - -
 
Date/Time
CST
Temp

°C
Wind Pressure Rain
since 9am
mm
Weather Cloud Vis
km
Sea
Height
m
Swell
Dir
 
Speed
knots
Gust
knots
hPa Trend Height
m
Period
s
Dir
28/11:30pm 6.5 CALM 0 0 1027.9 - 0.0 - - 10 - - - -
28/11:16pm 6.1 CALM 0 0 1027.9 - 0.0 - - 10 - - - -
28/11:00pm 6.5 CALM 0 0 1028.0 - 0.0 - - 2 - - - -
28/10:45pm 6.3 CALM 0 0 1028.1 - 0.0 - - 4 - - - -
28/10:30pm 6.3 CALM 0 0 1028.2 - 0.0 - - 10 - - - -
28/10:00pm 7.6 CALM 0 0 1028.3 - 0.0 - - 10 - - - -
28/09:39pm 7.9 CALM 0 0 1028.4 - 0.0 - - 10 - - - -
28/09:30pm 8.0 CALM 0 0 1028.3 - 0.0 - - 10 - - - -
28/09:00pm 8.8 CALM 0 0 1028.3 - 0.0 - - 10 - - - -
28/08:47pm 8.5 CALM 0 0 1028.3 - 0.0 - - 5 - - - -
28/08:36pm 8.6 CALM 0 0 1028.2 - 0.0 - - 7 - - - -
28/08:30pm 9.1 CALM 0 0 1028.2 - 0.0 - - 6 - - - -
28/08:23pm 9.3 CALM 0 0 1028.2 - 0.0 - - 5 - - - -
28/08:00pm 9.8 CALM 0 0 1028.1 - 0.0 - - 10 - - - -
28/07:30pm 10.0 CALM 0 0 1027.9 - 0.0 - - 10 - - - -
28/07:00pm 11.9 CALM 0 0 1027.8 - 0.0 - - 10 - - - -
28/06:30pm 12.8 CALM 0 0 1027.7 - 0.0 - - 10 - - - -
28/06:00pm 13.7 E 5 6 1027.6 - 0.0 - - 10 - - - -
28/05:30pm 16.1 E 5 8 1027.6 - 0.0 - - 10 - - - -
28/05:00pm 18.4 N 5 6 1026.8 - 0.0 - - 10 - - - -
28/04:30pm 18.9 N 5 6 1026.7 - 0.0 - - 10 - - - -
28/04:00pm 19.3 N 6 9 1026.6 - 0.0 - - 10 - - - -
28/03:30pm 19.6 N 7 9 1026.7 - 0.0 - - 10 - - - -
28/03:00pm 20.1 N 7 11 1026.7 - 0.0 - - 10 - - - -
28/02:30pm 20.4 N 8 11 1026.8 - 0.0 - - 10 - - - -
28/02:00pm 20.3 N 8 11 1026.9 - 0.0 - - 10 - - - -
28/01:30pm 19.9 N 8 11 1027.1 - 0.0 - - 10 - - - -
28/01:00pm 19.3 N 8 10 1027.5 - 0.0 - - 10 - - - -
28/12:30pm 19.0 N 7 10 1027.8 - 0.0 - - 10 - - - -
28/12:00pm 18.9 NNE 8 12 1028.3 - 0.0 - - 10 - - - -
28/11:30am 19.2 NNE 7 10 1028.5 - 0.0 - - 10 - - - -
28/11:00am 18.5 NNE 7 9 1028.7 - 0.0 - - 10 - - - -
28/10:30am 17.8 N 6 9 1028.7 - 0.0 - - 10 - - - -
28/10:00am 17.0 NNE 8 10 1028.8 - 0.0 - - 10 - - - -
28/09:30am 15.0 CALM 0 0 1029.1 - 0.0 - - 10 - - - -
28/09:00am 11.6 CALM 0 0 1029.0 - 0.0 - - 10 - - - -
28/08:30am 9.8 CALM 0 0 1028.7 - 0.0 - - 10 - - - -
28/08:00am 6.7 CALM 0 0 1028.4 - 0.0 - - 10 - - - -
28/07:30am 4.7 CALM 0 0 1028.3 - 0.0 - - 10 - - - -
28/07:00am 2.8 CALM 0 0 1028.1 - 0.0 - - 10 - - - -
28/06:30am 3.0 CALM 0 0 1027.9 - 0.0 - - 10 - - - -
28/06:00am 3.5 CALM 0 0 1027.7 - 0.0 - - 10 - - - -
28/05:30am 2.7 CALM 0 0 1027.5 - 0.0 - - 10 - - - -
28/05:00am 3.4 CALM 0 0 1027.2 - 0.0 - - 10 - - - -
28/04:30am 3.3 CALM 0 0 1027.3 - 0.0 - - 10 - - - -
28/04:00am 3.7 CALM 0 0 1027.2 - 0.0 - - 10 - - - -
28/03:30am 3.5 CALM 0 0 1027.2 - 0.0 - - 10 - - - -
28/03:00am 4.1 CALM 0 0 1027.3 - 0.0 - - 10 - - - -
28/02:30am 4.2 CALM 0 0 1027.6 - 0.0 - - 10 - - - -
28/02:26am 4.0 CALM 0 0 1027.6 - 0.0 - - 10 - - - -
28/02:15am 4.1 CALM 0 0 1027.7 - 0.0 - - 5 - - - -
28/02:00am 4.4 CALM 0 0 1027.8 - 0.0 - - 10 - - - -

Other Formats:

Comma delimited format used in spreadsheet applications
http://www.bom.gov.au/fwo/IDS60701/IDS60701.95807.axf

JavaScript Object Notation format (JSON) in row-major order
http://www.bom.gov.au/fwo/IDS60701/IDS60701.95807.json